sensor_id;sensor_type;location;lat;lon;timestamp;pressure;altitude;pressure_sealevel;temperature;humidity
76819;BME280;65772;51.096;17.006;2023-03-01T00:00:21;101684.88;;;1.22;56.62
76819;BME280;65772;51.096;17.006;2023-03-01T00:02:53;101681.55;;;1.19;56.74
76819;BME280;65772;51.096;17.006;2023-03-01T00:05:23;101679.61;;;1.16;57.01
76819;BME280;65772;51.096;17.006;2023-03-01T00:07:55;101683.55;;;1.13;57.06
76819;BME280;65772;51.096;17.006;2023-03-01T00:10:25;101686.29;;;1.12;57.18
76819;BME280;65772;51.096;17.006;2023-03-01T00:12:56;101689.92;;;1.11;57.35
76819;BME280;65772;51.096;17.006;2023-03-01T00:15:26;101687.70;;;1.08;57.41
76819;BME280;65772;51.096;17.006;2023-03-01T00:17:56;101686.33;;;1.06;57.33
76819;BME280;65772;51.096;17.006;2023-03-01T00:20:27;101682.33;;;1.04;57.41
76819;BME280;65772;51.096;17.006;2023-03-01T00:22:58;101679.30;;;1.03;57.73
76819;BME280;65772;51.096;17.006;2023-03-01T00:25:28;101674.84;;;1.00;57.76
76819;BME280;65772;51.096;17.006;2023-03-01T00:27:58;101670.17;;;0.97;57.96
76819;BME280;65772;51.096;17.006;2023-03-01T00:30:29;101674.23;;;0.93;58.08
76819;BME280;65772;51.096;17.006;2023-03-01T00:32:59;101679.23;;;0.89;57.93
76819;BME280;65772;51.096;17.006;2023-03-01T00:35:31;101677.53;;;0.87;58.07
76819;BME280;65772;51.096;17.006;2023-03-01T00:38:02;101671.96;;;0.84;58.04
76819;BME280;65772;51.096;17.006;2023-03-01T00:40:34;101664.16;;;0.82;58.14
76819;BME280;65772;51.096;17.006;2023-03-01T00:43:04;101659.86;;;0.79;58.18
76819;BME280;65772;51.096;17.006;2023-03-01T00:45:35;101656.89;;;0.76;58.47
76819;BME280;65772;51.096;17.006;2023-03-01T00:48:06;101648.55;;;0.75;58.39
76819;BME280;65772;51.096;17.006;2023-03-01T00:50:37;101646.33;;;0.74;58.46
76819;BME280;65772;51.096;17.006;2023-03-01T00:53:07;101644.92;;;0.73;58.47
76819;BME280;65772;51.096;17.006;2023-03-01T00:55:38;101649.48;;;0.69;58.65
76819;BME280;65772;51.096;17.006;2023-03-01T00:58:08;101649.02;;;0.63;58.66
76819;BME280;65772;51.096;17.006;2023-03-01T01:00:39;101646.24;;;0.58;58.72
76819;BME280;65772;51.096;17.006;2023-03-01T01:03:09;101645.75;;;0.55;58.83
76819;BME280;65772;51.096;17.006;2023-03-01T01:05:40;101646.21;;;0.52;58.92
76819;BME280;65772;51.096;17.006;2023-03-01T01:08:10;101646.94;;;0.49;59.09
76819;BME280;65772;51.096;17.006;2023-03-01T01:10:41;101647.52;;;0.45;58.98
76819;BME280;65772;51.096;17.006;2023-03-01T01:13:13;101645.04;;;0.41;59.10
76819;BME280;65772;51.096;17.006;2023-03-01T01:15:44;101633.97;;;0.38;59.09
76819;BME280;65772;51.096;17.006;2023-03-01T01:18:15;101633.59;;;0.37;59.28
76819;BME280;65772;51.096;17.006;2023-03-01T01:20:45;101644.98;;;0.37;59.35
76819;BME280;65772;51.096;17.006;2023-03-01T01:23:15;101645.88;;;0.34;59.45
76819;BME280;65772;51.096;17.006;2023-03-01T01:25:46;101639.95;;;0.31;59.54
76819;BME280;65772;51.096;17.006;2023-03-01T01:28:17;101633.20;;;0.29;59.56
76819;BME280;65772;51.096;17.006;2023-03-01T01:30:47;101635.61;;;0.26;59.58
76819;BME280;65772;51.096;17.006;2023-03-01T01:33:18;101634.96;;;0.21;59.74
76819;BME280;65772;51.096;17.006;2023-03-01T01:35:48;101632.98;;;0.18;59.89
76819;BME280;65772;51.096;17.006;2023-03-01T01:38:19;101623.40;;;0.16;59.95
76819;BME280;65772;51.096;17.006;2023-03-01T01:40:51;101617.95;;;0.17;59.98
76819;BME280;65772;51.096;17.006;2023-03-01T01:43:25;101618.73;;;0.18;59.99
76819;BME280;65772;51.096;17.006;2023-03-01T01:45:56;101619.67;;;0.17;60.04
76819;BME280;65772;51.096;17.006;2023-03-01T01:48:32;101612.80;;;0.15;60.07
76819;BME280;65772;51.096;17.006;2023-03-01T01:51:13;101608.23;;;0.15;60.22
76819;BME280;65772;51.096;17.006;2023-03-01T01:53:47;101606.27;;;0.14;60.21
76819;BME280;65772;51.096;17.006;2023-03-01T01:56:21;101601.61;;;0.14;60.25
76819;BME280;65772;51.096;17.006;2023-03-01T01:58:54;101602.41;;;0.12;60.17
76819;BME280;65772;51.096;17.006;2023-03-01T02:01:25;101604.05;;;0.10;60.29
76819;BME280;65772;51.096;17.006;2023-03-01T02:03:56;101602.46;;;0.09;60.34
76819;BME280;65772;51.096;17.006;2023-03-01T02:06:31;101603.38;;;0.08;60.45
76819;BME280;65772;51.096;17.006;2023-03-01T02:09:07;101597.13;;;0.08;60.67
76819;BME280;65772;51.096;17.006;2023-03-01T02:15:45;101600.58;;;0.03;60.79
76819;BME280;65772;51.096;17.006;2023-03-01T02:18:18;101596.38;;;0.01;60.74
76819;BME280;65772;51.096;17.006;2023-03-01T02:21:08;101591.23;;;-0.01;60.75
76819;BME280;65772;51.096;17.006;2023-03-01T02:23:44;101597.04;;;-0.01;60.84
76819;BME280;65772;51.096;17.006;2023-03-01T02:26:20;101600.54;;;-0.02;60.83
76819;BME280;65772;51.096;17.006;2023-03-01T02:28:54;101600.63;;;-0.02;60.93
76819;BME280;65772;51.096;17.006;2023-03-01T02:31:25;101600.98;;;-0.04;60.95
76819;BME280;65772;51.096;17.006;2023-03-01T02:34:16;101598.52;;;-0.06;61.02
76819;BME280;65772;51.096;17.006;2023-03-01T02:36:51;101599.66;;;-0.07;60.99
76819;BME280;65772;51.096;17.006;2023-03-01T02:39:25;101597.73;;;-0.10;60.99
76819;BME280;65772;51.096;17.006;2023-03-01T02:41:57;101597.08;;;-0.12;61.09
76819;BME280;65772;51.096;17.006;2023-03-01T02:44:29;101601.17;;;-0.15;61.14
76819;BME280;65772;51.096;17.006;2023-03-01T02:47:02;101600.13;;;-0.15;61.25
76819;BME280;65772;51.096;17.006;2023-03-01T02:49:36;101607.56;;;-0.16;61.34
76819;BME280;65772;51.096;17.006;2023-03-01T02:52:20;101606.56;;;-0.16;61.29
76819;BME280;65772;51.096;17.006;2023-03-01T02:54:57;101606.17;;;-0.17;61.41
76819;BME280;65772;51.096;17.006;2023-03-01T02:57:31;101606.46;;;-0.19;61.48
76819;BME280;65772;51.096;17.006;2023-03-01T03:00:05;101609.91;;;-0.23;61.62
76819;BME280;65772;51.096;17.006;2023-03-01T03:02:37;101611.17;;;-0.28;61.64
76819;BME280;65772;51.096;17.006;2023-03-01T03:05:18;101609.13;;;-0.21;61.69
76819;BME280;65772;51.096;17.006;2023-03-01T03:07:51;101607.48;;;-0.15;61.58
76819;BME280;65772;51.096;17.006;2023-03-01T03:10:24;101605.23;;;-0.11;61.54
76819;BME280;65772;51.096;17.006;2023-03-01T03:12:57;101606.28;;;-0.03;61.48
76819;BME280;65772;51.096;17.006;2023-03-01T03:15:29;101609.28;;;0.05;61.54
76819;BME280;65772;51.096;17.006;2023-03-01T03:18:00;101611.15;;;0.10;61.55
76819;BME280;65772;51.096;17.006;2023-03-01T03:20:31;101613.64;;;0.15;61.42
76819;BME280;65772;51.096;17.006;2023-03-01T03:23:01;101606.75;;;0.19;61.50
76819;BME280;65772;51.096;17.006;2023-03-01T03:25:32;101602.25;;;0.21;61.60
76819;BME280;65772;51.096;17.006;2023-03-01T03:28:07;101594.77;;;0.22;61.43
76819;BME280;65772;51.096;17.006;2023-03-01T03:30:39;101596.12;;;0.24;61.32
76819;BME280;65772;51.096;17.006;2023-03-01T03:33:11;101595.16;;;0.21;61.17
76819;BME280;65772;51.096;17.006;2023-03-01T03:35:44;101587.83;;;0.18;61.22
76819;BME280;65772;51.096;17.006;2023-03-01T03:38:17;101585.16;;;0.14;61.36
76819;BME280;65772;51.096;17.006;2023-03-01T03:40:52;101584.67;;;0.05;61.28
76819;BME280;65772;51.096;17.006;2023-03-01T03:43:31;101579.45;;;-0.03;61.33
76819;BME280;65772;51.096;17.006;2023-03-01T03:46:04;101580.54;;;-0.09;61.40
76819;BME280;65772;51.096;17.006;2023-03-01T03:48:37;101575.52;;;-0.14;61.53
76819;BME280;65772;51.096;17.006;2023-03-01T03:51:06;101577.17;;;-0.20;61.60
76819;BME280;65772;51.096;17.006;2023-03-01T03:53:37;101574.15;;;-0.24;61.65
76819;BME280;65772;51.096;17.006;2023-03-01T03:56:08;101576.26;;;-0.25;61.87
76819;BME280;65772;51.096;17.006;2023-03-01T03:58:39;101572.89;;;-0.25;61.97
76819;BME280;65772;51.096;17.006;2023-03-01T04:01:09;101567.91;;;-0.26;61.88
76819;BME280;65772;51.096;17.006;2023-03-01T04:03:40;101563.80;;;-0.25;62.11
76819;BME280;65772;51.096;17.006;2023-03-01T04:06:15;101561.02;;;-0.26;61.97
76819;BME280;65772;51.096;17.006;2023-03-01T04:08:46;101562.41;;;-0.29;61.93
76819;BME280;65772;51.096;17.006;2023-03-01T04:11:20;101557.34;;;-0.31;62.00
76819;BME280;65772;51.096;17.006;2023-03-01T04:13:57;101555.84;;;-0.31;61.96
76819;BME280;65772;51.096;17.006;2023-03-01T04:16:29;101557.27;;;-0.30;62.13
76819;BME280;65772;51.096;17.006;2023-03-01T04:19:00;101556.88;;;-0.30;62.17
76819;BME280;65772;51.096;17.006;2023-03-01T04:21:31;101559.73;;;-0.31;62.10
76819;BME280;65772;51.096;17.006;2023-03-01T04:24:01;101559.33;;;-0.32;62.26
76819;BME280;65772;51.096;17.006;2023-03-01T04:26:32;101559.81;;;-0.32;62.13
76819;BME280;65772;51.096;17.006;2023-03-01T04:29:03;101560.83;;;-0.33;62.14
76819;BME280;65772;51.096;17.006;2023-03-01T04:31:33;101554.61;;;-0.34;62.18
76819;BME280;65772;51.096;17.006;2023-03-01T04:34:04;101557.71;;;-0.34;62.28
76819;BME280;65772;51.096;17.006;2023-03-01T04:36:35;101560.65;;;-0.35;62.38
76819;BME280;65772;51.096;17.006;2023-03-01T04:39:06;101561.07;;;-0.37;62.44
76819;BME280;65772;51.096;17.006;2023-03-01T04:41:41;101557.28;;;-0.38;62.48
76819;BME280;65772;51.096;17.006;2023-03-01T04:44:13;101553.05;;;-0.40;62.20
76819;BME280;65772;51.096;17.006;2023-03-01T04:46:43;101553.50;;;-0.40;62.40
76819;BME280;65772;51.096;17.006;2023-03-01T04:49:14;101555.98;;;-0.41;62.41
76819;BME280;65772;51.096;17.006;2023-03-01T04:51:45;101559.06;;;-0.40;62.51
76819;BME280;65772;51.096;17.006;2023-03-01T04:54:15;101562.20;;;-0.41;62.29
76819;BME280;65772;51.096;17.006;2023-03-01T04:56:46;101559.87;;;-0.42;62.38
76819;BME280;65772;51.096;17.006;2023-03-01T04:59:16;101566.37;;;-0.43;62.33
76819;BME280;65772;51.096;17.006;2023-03-01T05:01:47;101570.94;;;-0.44;62.39
76819;BME280;65772;51.096;17.006;2023-03-01T05:04:18;101571.15;;;-0.45;62.42
76819;BME280;65772;51.096;17.006;2023-03-01T05:06:48;101567.77;;;-0.47;62.43
76819;BME280;65772;51.096;17.006;2023-03-01T05:09:19;101562.98;;;-0.48;62.44
76819;BME280;65772;51.096;17.006;2023-03-01T05:11:49;101560.09;;;-0.49;62.56
76819;BME280;65772;51.096;17.006;2023-03-01T05:14:20;101558.79;;;-0.48;62.70
76819;BME280;65772;51.096;17.006;2023-03-01T05:16:52;101560.26;;;-0.49;62.59
76819;BME280;65772;51.096;17.006;2023-03-01T05:19:22;101560.45;;;-0.49;62.69
76819;BME280;65772;51.096;17.006;2023-03-01T05:21:53;101558.22;;;-0.49;62.58
76819;BME280;65772;51.096;17.006;2023-03-01T05:24:34;101562.52;;;-0.50;62.61
76819;BME280;65772;51.096;17.006;2023-03-01T05:27:06;101564.00;;;-0.50;62.60
76819;BME280;65772;51.096;17.006;2023-03-01T05:29:36;101567.14;;;-0.50;62.66
76819;BME280;65772;51.096;17.006;2023-03-01T05:32:08;101568.83;;;-0.50;62.66
76819;BME280;65772;51.096;17.006;2023-03-01T05:34:44;101563.61;;;-0.50;62.90
76819;BME280;65772;51.096;17.006;2023-03-01T05:37:15;101563.49;;;-0.52;62.92
76819;BME280;65772;51.096;17.006;2023-03-01T05:39:45;101567.70;;;-0.52;62.96
76819;BME280;65772;51.096;17.006;2023-03-01T05:42:19;101565.11;;;-0.45;62.71
76819;BME280;65772;51.096;17.006;2023-03-01T05:44:49;101561.08;;;-0.40;62.75
76819;BME280;65772;51.096;17.006;2023-03-01T05:47:19;101562.27;;;-0.34;62.81
76819;BME280;65772;51.096;17.006;2023-03-01T05:49:50;101567.08;;;-0.27;62.78
76819;BME280;65772;51.096;17.006;2023-03-01T05:52:21;101572.58;;;-0.21;62.76
76819;BME280;65772;51.096;17.006;2023-03-01T05:54:51;101573.89;;;-0.14;62.67
76819;BME280;65772;51.096;17.006;2023-03-01T05:57:22;101577.27;;;-0.10;62.60
76819;BME280;65772;51.096;17.006;2023-03-01T05:59:52;101580.30;;;-0.06;62.49
76819;BME280;65772;51.096;17.006;2023-03-01T06:02:22;101578.23;;;-0.03;62.54
76819;BME280;65772;51.096;17.006;2023-03-01T06:04:53;101575.02;;;-0.02;62.56
76819;BME280;65772;51.096;17.006;2023-03-01T06:07:24;101576.43;;;-0.01;62.64
76819;BME280;65772;51.096;17.006;2023-03-01T06:09:54;101579.52;;;0.00;62.50
76819;BME280;65772;51.096;17.006;2023-03-01T06:12:25;101580.14;;;0.02;62.46
76819;BME280;65772;51.096;17.006;2023-03-01T06:14:55;101578.31;;;0.02;62.36
76819;BME280;65772;51.096;17.006;2023-03-01T06:17:26;101578.05;;;0.03;62.39
76819;BME280;65772;51.096;17.006;2023-03-01T06:19:59;101579.70;;;0.04;62.51
76819;BME280;65772;51.096;17.006;2023-03-01T06:22:30;101577.17;;;0.06;62.47
76819;BME280;65772;51.096;17.006;2023-03-01T06:25:00;101579.71;;;0.06;62.66
76819;BME280;65772;51.096;17.006;2023-03-01T06:27:31;101577.73;;;0.06;62.41
76819;BME280;65772;51.096;17.006;2023-03-01T06:30:02;101571.19;;;0.06;62.44
76819;BME280;65772;51.096;17.006;2023-03-01T06:32:33;101566.63;;;0.08;62.37
76819;BME280;65772;51.096;17.006;2023-03-01T06:35:04;101567.60;;;0.09;62.50
76819;BME280;65772;51.096;17.006;2023-03-01T06:37:35;101566.46;;;0.10;62.49
76819;BME280;65772;51.096;17.006;2023-03-01T06:40:07;101566.86;;;0.11;62.41
76819;BME280;65772;51.096;17.006;2023-03-01T06:42:41;101562.61;;;0.12;62.38
76819;BME280;65772;51.096;17.006;2023-03-01T06:45:12;101557.34;;;0.13;62.49
76819;BME280;65772;51.096;17.006;2023-03-01T06:47:43;101558.38;;;0.15;62.61
76819;BME280;65772;51.096;17.006;2023-03-01T06:50:14;101556.60;;;0.17;62.59
76819;BME280;65772;51.096;17.006;2023-03-01T06:52:45;101559.75;;;0.21;62.87
76819;BME280;65772;51.096;17.006;2023-03-01T06:55:16;101552.77;;;0.24;62.74
76819;BME280;65772;51.096;17.006;2023-03-01T06:57:46;101555.48;;;0.28;62.65
76819;BME280;65772;51.096;17.006;2023-03-01T07:00:18;101555.80;;;0.31;62.52
76819;BME280;65772;51.096;17.006;2023-03-01T07:02:49;101556.00;;;0.35;62.49
76819;BME280;65772;51.096;17.006;2023-03-01T07:05:20;101552.69;;;0.40;62.47
76819;BME280;65772;51.096;17.006;2023-03-01T07:07:51;101554.01;;;0.43;62.43
76819;BME280;65772;51.096;17.006;2023-03-01T07:10:23;101554.45;;;0.46;62.33
76819;BME280;65772;51.096;17.006;2023-03-01T07:12:57;101560.23;;;0.49;62.34
76819;BME280;65772;51.096;17.006;2023-03-01T07:15:28;101568.11;;;0.52;62.22
76819;BME280;65772;51.096;17.006;2023-03-01T07:17:59;101576.34;;;0.56;62.14
76819;BME280;65772;51.096;17.006;2023-03-01T07:20:29;101576.80;;;0.59;62.08
76819;BME280;65772;51.096;17.006;2023-03-01T07:23:00;101578.02;;;0.60;62.10
76819;BME280;65772;51.096;17.006;2023-03-01T07:25:30;101576.50;;;0.60;62.05
76819;BME280;65772;51.096;17.006;2023-03-01T07:28:01;101581.29;;;0.62;61.95
76819;BME280;65772;51.096;17.006;2023-03-01T07:30:32;101581.48;;;0.65;61.93
76819;BME280;65772;51.096;17.006;2023-03-01T07:33:02;101577.75;;;0.68;61.88
76819;BME280;65772;51.096;17.006;2023-03-01T07:35:33;101571.15;;;0.73;61.94
76819;BME280;65772;51.096;17.006;2023-03-01T07:38:03;101558.85;;;0.79;62.02
76819;BME280;65772;51.096;17.006;2023-03-01T07:40:34;101562.34;;;0.84;61.84
76819;BME280;65772;51.096;17.006;2023-03-01T07:43:04;101565.61;;;0.89;61.77
76819;BME280;65772;51.096;17.006;2023-03-01T07:45:35;101557.34;;;0.94;61.59
76819;BME280;65772;51.096;17.006;2023-03-01T07:48:06;101551.76;;;1.00;61.58
76819;BME280;65772;51.096;17.006;2023-03-01T07:50:36;101547.73;;;1.05;61.48
76819;BME280;65772;51.096;17.006;2023-03-01T07:53:07;101548.17;;;1.11;61.34
76819;BME280;65772;51.096;17.006;2023-03-01T07:55:38;101539.87;;;1.16;60.99
76819;BME280;65772;51.096;17.006;2023-03-01T07:58:09;101534.58;;;1.21;60.91
76819;BME280;65772;51.096;17.006;2023-03-01T08:00:39;101535.66;;;1.25;60.82
76819;BME280;65772;51.096;17.006;2023-03-01T08:03:10;101532.02;;;1.30;60.53
76819;BME280;65772;51.096;17.006;2023-03-01T08:05:41;101538.29;;;1.36;60.58
76819;BME280;65772;51.096;17.006;2023-03-01T08:08:11;101533.60;;;1.43;60.61
76819;BME280;65772;51.096;17.006;2023-03-01T08:10:42;101535.13;;;1.49;60.49
76819;BME280;65772;51.096;17.006;2023-03-01T08:13:12;101526.54;;;1.55;60.34
76819;BME280;65772;51.096;17.006;2023-03-01T08:15:43;101523.78;;;1.60;60.10
76819;BME280;65772;51.096;17.006;2023-03-01T08:18:13;101519.35;;;1.65;59.77
76819;BME280;65772;51.096;17.006;2023-03-01T08:20:44;101512.81;;;1.70;59.67
76819;BME280;65772;51.096;17.006;2023-03-01T08:23:14;101507.23;;;1.73;59.43
76819;BME280;65772;51.096;17.006;2023-03-01T08:25:45;101511.98;;;1.78;59.15
76819;BME280;65772;51.096;17.006;2023-03-01T08:28:15;101516.44;;;1.81;58.87
76819;BME280;65772;51.096;17.006;2023-03-01T08:30:46;101519.98;;;1.85;58.73
76819;BME280;65772;51.096;17.006;2023-03-01T08:33:16;101522.55;;;1.89;58.57
76819;BME280;65772;51.096;17.006;2023-03-01T08:35:47;101517.91;;;1.95;58.39
76819;BME280;65772;51.096;17.006;2023-03-01T08:38:17;101523.66;;;1.99;58.11
76819;BME280;65772;51.096;17.006;2023-03-01T08:40:48;101522.62;;;2.03;57.83
76819;BME280;65772;51.096;17.006;2023-03-01T08:43:18;101520.94;;;2.09;57.86
76819;BME280;65772;51.096;17.006;2023-03-01T08:45:50;101523.31;;;2.15;57.82
76819;BME280;65772;51.096;17.006;2023-03-01T08:48:21;101525.52;;;2.22;57.51
76819;BME280;65772;51.096;17.006;2023-03-01T08:50:52;101531.54;;;2.30;57.38
76819;BME280;65772;51.096;17.006;2023-03-01T08:53:22;101532.43;;;2.36;57.12
76819;BME280;65772;51.096;17.006;2023-03-01T08:55:52;101529.34;;;2.44;57.09
76819;BME280;65772;51.096;17.006;2023-03-01T08:58:23;101527.65;;;2.52;56.98
76819;BME280;65772;51.096;17.006;2023-03-01T09:00:53;101527.36;;;2.61;56.84
76819;BME280;65772;51.096;17.006;2023-03-01T09:03:25;101525.55;;;2.70;56.86
76819;BME280;65772;51.096;17.006;2023-03-01T09:06:01;101520.88;;;2.79;56.56
76819;BME280;65772;51.096;17.006;2023-03-01T09:08:36;101521.33;;;2.89;56.49
76819;BME280;65772;51.096;17.006;2023-03-01T09:11:09;101521.13;;;3.00;56.25
76819;BME280;65772;51.096;17.006;2023-03-01T09:13:40;101520.73;;;3.09;56.17
76819;BME280;65772;51.096;17.006;2023-03-01T09:16:14;101523.18;;;3.19;55.99
76819;BME280;65772;51.096;17.006;2023-03-01T09:18:48;101523.84;;;3.30;55.83
76819;BME280;65772;51.096;17.006;2023-03-01T09:21:20;101521.95;;;3.40;55.51
76819;BME280;65772;51.096;17.006;2023-03-01T09:24:11;101513.02;;;3.51;55.18
76819;BME280;65772;51.096;17.006;2023-03-01T09:26:43;101512.14;;;3.62;55.13
76819;BME280;65772;51.096;17.006;2023-03-01T09:29:17;101510.40;;;3.73;54.73
76819;BME280;65772;51.096;17.006;2023-03-01T09:31:47;101510.75;;;3.84;54.90
76819;BME280;65772;51.096;17.006;2023-03-01T09:34:18;101512.55;;;3.94;54.83
76819;BME280;65772;51.096;17.006;2023-03-01T09:36:52;101513.80;;;4.07;54.54
76819;BME280;65772;51.096;17.006;2023-03-01T09:39:22;101512.26;;;4.18;54.54
76819;BME280;65772;51.096;17.006;2023-03-01T09:41:59;101506.67;;;4.29;54.11
76819;BME280;65772;51.096;17.006;2023-03-01T09:44:38;101504.89;;;4.39;53.80
76819;BME280;65772;51.096;17.006;2023-03-01T09:47:16;101500.08;;;4.48;53.10
76819;BME280;65772;51.096;17.006;2023-03-01T09:49:53;101502.77;;;4.57;53.03
76819;BME280;65772;51.096;17.006;2023-03-01T09:52:32;101499.31;;;4.68;52.98
76819;BME280;65772;51.096;17.006;2023-03-01T09:55:10;101493.96;;;4.78;52.42
76819;BME280;65772;51.096;17.006;2023-03-01T09:57:47;101496.92;;;4.89;52.53
76819;BME280;65772;51.096;17.006;2023-03-01T10:00:33;101497.41;;;5.01;51.93
76819;BME280;65772;51.096;17.006;2023-03-01T10:03:14;101497.80;;;5.11;51.56
76819;BME280;65772;51.096;17.006;2023-03-01T10:05:54;101495.39;;;5.23;51.28
76819;BME280;65772;51.096;17.006;2023-03-01T10:08:31;101494.29;;;5.31;50.82
76819;BME280;65772;51.096;17.006;2023-03-01T10:11:15;101494.12;;;5.41;50.63
76819;BME280;65772;51.096;17.006;2023-03-01T10:13:54;101488.27;;;5.52;50.01
76819;BME280;65772;51.096;17.006;2023-03-01T10:16:28;101486.32;;;5.58;49.21
76819;BME280;65772;51.096;17.006;2023-03-01T10:19:05;101480.92;;;5.66;49.24
76819;BME280;65772;51.096;17.006;2023-03-01T10:21:43;101489.09;;;5.74;48.90
76819;BME280;65772;51.096;17.006;2023-03-01T10:24:16;101484.89;;;5.85;49.34
76819;BME280;65772;51.096;17.006;2023-03-01T10:26:54;101481.89;;;5.96;48.94
76819;BME280;65772;51.096;17.006;2023-03-01T10:29:29;101477.38;;;6.04;48.46
76819;BME280;65772;51.096;17.006;2023-03-01T10:32:00;101467.40;;;6.10;47.90
76819;BME280;65772;51.096;17.006;2023-03-01T10:34:37;101464.45;;;6.16;47.37
76819;BME280;65772;51.096;17.006;2023-03-01T10:37:13;101459.94;;;6.25;47.53
76819;BME280;65772;51.096;17.006;2023-03-01T10:40:03;101460.61;;;6.38;47.75
76819;BME280;65772;51.096;17.006;2023-03-01T10:42:45;101461.34;;;6.52;47.57
76819;BME280;65772;51.096;17.006;2023-03-01T10:45:26;101461.08;;;6.67;47.74
76819;BME280;65772;51.096;17.006;2023-03-01T10:48:10;101455.16;;;6.81;47.06
76819;BME280;65772;51.096;17.006;2023-03-01T10:50:43;101450.85;;;6.93;46.99
76819;BME280;65772;51.096;17.006;2023-03-01T10:53:34;101447.73;;;7.06;46.48
76819;BME280;65772;51.096;17.006;2023-03-01T10:56:08;101448.27;;;7.18;45.85
76819;BME280;65772;51.096;17.006;2023-03-01T10:58:41;101452.17;;;7.29;45.57
76819;BME280;65772;51.096;17.006;2023-03-01T11:01:28;101442.80;;;7.40;45.48
76819;BME280;65772;51.096;17.006;2023-03-01T11:04:13;101437.70;;;7.54;45.41
76819;BME280;65772;51.096;17.006;2023-03-01T11:06:44;101438.96;;;7.70;45.29
76819;BME280;65772;51.096;17.006;2023-03-01T11:09:32;101439.27;;;7.87;45.30
76819;BME280;65772;51.096;17.006;2023-03-01T11:12:14;101431.25;;;8.04;44.78
76819;BME280;65772;51.096;17.006;2023-03-01T11:14:49;101426.09;;;8.18;44.74
76819;BME280;65772;51.096;17.006;2023-03-01T11:17:24;101427.95;;;8.33;44.31
76819;BME280;65772;51.096;17.006;2023-03-01T11:20:23;101426.63;;;8.45;43.83
76819;BME280;65772;51.096;17.006;2023-03-01T11:23:00;101423.35;;;8.54;42.51
76819;BME280;65772;51.096;17.006;2023-03-01T11:25:34;101421.91;;;8.59;42.70
76819;BME280;65772;51.096;17.006;2023-03-01T11:28:07;101419.50;;;8.71;42.86
76819;BME280;65772;51.096;17.006;2023-03-01T11:30:44;101421.09;;;8.88;42.47
76819;BME280;65772;51.096;17.006;2023-03-01T11:33:41;101420.84;;;9.05;42.57
76819;BME280;65772;51.096;17.006;2023-03-01T11:36:22;101420.61;;;9.20;42.63
76819;BME280;65772;51.096;17.006;2023-03-01T11:38:56;101418.69;;;9.36;42.51
76819;BME280;65772;51.096;17.006;2023-03-01T11:41:30;101417.34;;;9.49;42.11
76819;BME280;65772;51.096;17.006;2023-03-01T11:44:03;101418.00;;;9.59;41.02
76819;BME280;65772;51.096;17.006;2023-03-01T11:47:12;101413.83;;;9.64;40.52
76819;BME280;65772;51.096;17.006;2023-03-01T11:52:51;101407.77;;;9.76;39.78
76819;BME280;65772;51.096;17.006;2023-03-01T11:55:49;101403.73;;;9.84;39.83
76819;BME280;65772;51.096;17.006;2023-03-01T11:58:38;101401.61;;;9.96;39.53
76819;BME280;65772;51.096;17.006;2023-03-01T12:01:23;101398.70;;;10.14;39.24
76819;BME280;65772;51.096;17.006;2023-03-01T12:04:17;101394.46;;;10.32;39.56
76819;BME280;65772;51.096;17.006;2023-03-01T12:06:59;101392.43;;;10.47;39.11
76819;BME280;65772;51.096;17.006;2023-03-01T12:09:51;101392.34;;;10.63;39.13
76819;BME280;65772;51.096;17.006;2023-03-01T12:12:33;101395.52;;;10.80;38.89
76819;BME280;65772;51.096;17.006;2023-03-01T12:15:39;101390.67;;;10.90;38.31
76819;BME280;65772;51.096;17.006;2023-03-01T12:18:36;101386.50;;;10.96;37.75
76819;BME280;65772;51.096;17.006;2023-03-01T12:21:20;101384.41;;;10.95;37.26
76819;BME280;65772;51.096;17.006;2023-03-01T12:24:19;101382.80;;;10.94;36.91
76819;BME280;65772;51.096;17.006;2023-03-01T12:27:00;101380.84;;;10.96;36.53
76819;BME280;65772;51.096;17.006;2023-03-01T12:29:40;101375.54;;;10.96;36.10
76819;BME280;65772;51.096;17.006;2023-03-01T12:32:27;101376.04;;;10.99;36.53
76819;BME280;65772;51.096;17.006;2023-03-01T12:35:31;101376.10;;;11.08;36.85
76819;BME280;65772;51.096;17.006;2023-03-01T12:38:19;101375.95;;;11.20;36.25
76819;BME280;65772;51.096;17.006;2023-03-01T12:41:08;101368.71;;;11.27;36.04
76819;BME280;65772;51.096;17.006;2023-03-01T12:43:50;101366.53;;;11.40;36.50
76819;BME280;65772;51.096;17.006;2023-03-01T12:46:36;101356.86;;;11.58;36.73
76819;BME280;65772;51.096;17.006;2023-03-01T12:49:13;101349.39;;;11.76;35.95
76819;BME280;65772;51.096;17.006;2023-03-01T12:51:51;101346.11;;;11.91;35.53
76819;BME280;65772;51.096;17.006;2023-03-01T12:54:28;101342.36;;;12.05;35.52
76819;BME280;65772;51.096;17.006;2023-03-01T12:57:03;101338.42;;;12.18;35.49
76819;BME280;65772;51.096;17.006;2023-03-01T12:59:39;101336.02;;;12.27;35.16
76819;BME280;65772;51.096;17.006;2023-03-01T13:02:19;101327.86;;;12.33;34.55
76819;BME280;65772;51.096;17.006;2023-03-01T13:05:04;101329.95;;;12.34;33.70
76819;BME280;65772;51.096;17.006;2023-03-01T13:07:38;101327.20;;;12.29;33.54
76819;BME280;65772;51.096;17.006;2023-03-01T13:10:23;101328.64;;;12.31;33.88
76819;BME280;65772;51.096;17.006;2023-03-01T13:13:03;101327.16;;;12.36;33.46
76819;BME280;65772;51.096;17.006;2023-03-01T13:15:41;101322.52;;;12.36;32.97
76819;BME280;65772;51.096;17.006;2023-03-01T13:18:30;101321.06;;;12.38;32.81
76819;BME280;65772;51.096;17.006;2023-03-01T13:21:02;101321.55;;;12.47;32.54
76819;BME280;65772;51.096;17.006;2023-03-01T13:23:37;101322.08;;;12.57;32.07
76819;BME280;65772;51.096;17.006;2023-03-01T13:26:11;101318.40;;;12.68;32.70
76819;BME280;65772;51.096;17.006;2023-03-01T13:28:54;101318.98;;;12.80;32.73